Time;durP1;ratioP1;P1;durP2;ratioP2;P2;SDS_P1;SDS_P2;PMS_P1;PMS_P2;Temp;Humidity;BMP_temperature;BMP_pressure;BME280_temperature;BME280_humidity;BME280_pressure;Samples;Min_cycle;Max_cycle;Signal;HPM_P1;HPM_P2
2022/03/23 00:00:17;;;;;;;35.53;15.18;;;;;;;9.81;38.59;102527.63;5036473;28;20052;-64
2022/03/23 00:02:44;;;;;;;31.42;15.73;;;;;;;9.84;38.87;102535.38;5070173;28;20048;-64
2022/03/23 00:05:11;;;;;;;36.60;15.75;;;;;;;9.74;39.15;102532.50;5053023;28;20032;-63
2022/03/23 00:07:37;;;;;;;29.92;15.43;;;;;;;9.70;38.57;102528.38;5055242;28;20056;-63
2022/03/23 00:10:05;;;;;;;38.78;17.27;;;;;;;9.72;39.05;102529.09;5054566;28;20420;-63
2022/03/23 00:12:32;;;;;;;34.88;15.57;;;;;;;9.70;38.97;102525.72;5055195;28;20393;-64
2022/03/23 00:14:58;;;;;;;38.88;15.52;;;;;;;9.68;39.21;102518.81;5038389;28;20048;-63
2022/03/23 00:17:25;;;;;;;30.80;14.95;;;;;;;9.64;38.77;102525.28;5072910;28;20048;-64
2022/03/23 00:19:52;;;;;;;36.75;15.07;;;;;;;9.69;39.92;102528.47;5054955;28;20051;-63
2022/03/23 00:22:18;;;;;;;33.67;16.67;;;;;;;9.62;38.79;102528.03;5072619;28;20041;-64
2022/03/23 00:24:45;;;;;;;30.88;15.32;;;;;;;9.70;39.48;102531.03;5072289;28;20051;-63
2022/03/23 00:27:12;;;;;;;35.38;17.00;;;;;;;9.68;40.03;102535.56;5038320;28;20033;-63
2022/03/23 00:29:40;;;;;;;31.67;15.65;;;;;;;9.69;38.75;102536.41;5054584;28;20048;-63
2022/03/23 00:32:07;;;;;;;31.75;14.98;;;;;;;9.73;39.77;102529.94;5033007;28;20045;-63
2022/03/23 00:34:34;;;;;;;36.85;15.77;;;;;;;9.68;40.77;102535.56;5034694;28;20091;-63
2022/03/23 00:37:01;;;;;;;36.03;15.90;;;;;;;9.61;41.34;102532.50;5018309;28;20067;-63
2022/03/23 00:39:28;;;;;;;30.27;15.35;;;;;;;9.56;41.38;102533.75;5034563;28;20490;-64
2022/03/23 00:41:57;;;;;;;33.33;15.65;;;;;;;9.50;42.47;102529.72;5051375;28;20044;-64
2022/03/23 00:44:26;;;;;;;33.83;15.25;;;;;;;9.53;42.33;102533.94;5070332;28;20106;-63
2022/03/23 00:46:52;;;;;;;31.67;16.00;;;;;;;9.41;42.04;102538.28;5021564;28;20562;-63
2022/03/23 00:49:20;;;;;;;37.05;16.13;;;;;;;9.44;41.44;102532.78;5075547;28;20048;-63
2022/03/23 00:51:47;;;;;;;38.17;15.57;;;;;;;9.49;41.50;102537.75;5076016;28;20044;-63
2022/03/23 00:54:14;;;;;;;36.13;15.75;;;;;;;9.49;42.12;102533.31;5057995;28;20492;-63
2022/03/23 00:56:41;;;;;;;32.22;16.17;;;;;;;9.41;41.24;102536.47;5041964;28;20044;-63
2022/03/23 00:59:07;;;;;;;38.13;15.68;;;;;;;9.37;42.00;102531.50;5058332;28;20131;-63
2022/03/23 01:01:34;;;;;;;39.58;16.20;;;;;;;9.32;43.02;102539.75;5073844;28;20059;-63
2022/03/23 01:04:01;;;;;;;30.67;16.27;;;;;;;9.29;41.82;102537.28;5075853;28;20050;-63
2022/03/23 01:06:28;;;;;;;32.17;15.60;;;;;;;9.17;41.80;102536.31;5075797;28;20068;-64
2022/03/23 01:08:55;;;;;;;38.67;16.40;;;;;;;9.21;41.76;102527.22;5041368;28;20041;-63
2022/03/23 01:11:22;;;;;;;44.20;17.17;;;;;;;9.14;41.49;102535.66;5058078;28;20041;-64
2022/03/23 01:13:49;;;;;;;34.35;16.00;;;;;;;9.22;42.27;102534.22;5057978;28;20040;-63
2022/03/23 01:16:17;;;;;;;34.72;15.68;;;;;;;9.22;41.91;102530.69;5075702;28;20070;-64
2022/03/23 01:18:44;;;;;;;39.22;15.70;;;;;;;9.28;41.55;102537.38;5025221;28;20048;-64
2022/03/23 01:21:13;;;;;;;34.95;17.15;;;;;;;9.28;42.56;102532.97;5057807;28;20044;-63
2022/03/23 01:23:42;;;;;;;48.65;16.75;;;;;;;9.17;42.08;102525.72;5058109;28;20094;-64
2022/03/23 01:26:09;;;;;;;38.58;17.55;;;;;;;9.15;41.86;102524.97;5058079;28;20079;-63
2022/03/23 01:28:36;;;;;;;37.10;16.80;;;;;;;9.17;42.77;102528.38;5041205;28;20045;-64
2022/03/23 01:31:03;;;;;;;37.67;17.63;;;;;;;9.16;43.36;102528.47;5038992;28;20511;-64
2022/03/23 01:33:32;;;;;;;36.60;16.60;;;;;;;9.12;43.48;102525.16;5057774;28;20041;-64
2022/03/23 01:35:59;;;;;;;37.78;18.02;;;;;;;9.10;43.05;102523.59;5074974;28;20616;-64
2022/03/23 01:38:26;;;;;;;34.58;16.70;;;;;;;9.00;43.20;102528.63;5075191;28;20509;-64
2022/03/23 01:40:53;;;;;;;36.00;16.45;;;;;;;8.98;43.94;102531.34;5055187;28;20533;-64
2022/03/23 01:43:19;;;;;;;30.40;16.75;;;;;;;8.96;44.39;102532.41;5054996;28;20041;-64
2022/03/23 01:45:46;;;;;;;37.78;17.35;;;;;;;8.95;43.33;102525.41;5021155;28;20053;-64
2022/03/23 01:48:13;;;;;;;36.08;17.45;;;;;;;8.93;43.93;102527.31;5021203;28;20090;-64
2022/03/23 01:50:41;;;;;;;33.17;16.52;;;;;;;8.92;44.34;102523.81;5037156;28;20040;-64
2022/03/23 01:53:07;;;;;;;34.53;17.35;;;;;;;8.96;43.84;102527.97;5037454;28;20098;-64
2022/03/23 01:55:34;;;;;;;32.50;17.52;;;;;;;8.84;44.05;102528.75;5020456;28;20140;-64
2022/03/23 01:58:02;;;;;;;38.55;17.65;;;;;;;8.84;44.25;102526.09;5037303;28;20044;-64
2022/03/23 02:00:29;;;;;;;35.85;17.35;;;;;;;8.76;44.78;102523.13;5061415;28;20045;-64
2022/03/23 02:02:58;;;;;;;37.53;16.00;;;;;;;8.72;44.33;102527.75;5056601;28;20135;-64
2022/03/23 02:05:24;;;;;;;36.60;17.85;;;;;;;8.65;44.32;102523.81;5057193;28;20143;-64
2022/03/23 02:07:56;;;;;;;35.65;17.85;;;;;;;8.53;44.58;102516.66;5054853;28;20075;-64
2022/03/23 02:10:23;;;;;;;35.65;16.45;;;;;;;8.51;44.62;102514.09;5074367;28;20113;-64
2022/03/23 02:12:57;;;;;;;32.58;16.67;;;;;;;8.50;44.71;102519.50;5074576;28;20044;-63
2022/03/23 02:15:26;;;;;;;35.65;16.90;;;;;;;8.43;44.19;102516.38;5056776;28;20091;-64
2022/03/23 02:17:54;;;;;;;37.25;17.83;;;;;;;8.38;44.22;102519.28;5074939;28;20127;-64
2022/03/23 02:20:21;;;;;;;34.55;17.80;;;;;;;8.33;44.30;102507.28;5056794;28;20489;-64
2022/03/23 02:22:48;;;;;;;39.47;17.15;;;;;;;8.39;43.53;102510.41;5074211;28;20047;-64
2022/03/23 02:25:20;;;;;;;34.63;16.83;;;;;;;8.43;43.15;102511.09;5056313;28;20087;-64
2022/03/23 02:27:47;;;;;;;;;;;;;;;8.41;43.82;102511.16;5040655;28;20056;-64
2022/03/23 02:30:14;;;;;;;36.53;16.77;;;;;;;8.43;43.72;102514.59;5074210;28;19970;-64
2022/03/23 02:32:41;;;;;;;35.17;16.83;;;;;;;8.45;45.02;102507.41;5032115;28;20592;-64
2022/03/23 02:35:11;;;;;;;33.95;16.08;;;;;;;8.37;45.28;102507.00;5036416;28;20103;-64
2022/03/23 02:37:39;;;;;;;38.05;17.60;;;;;;;8.33;45.58;102505.53;5018316;28;20037;-64
2022/03/23 02:40:08;;;;;;;41.30;17.40;;;;;;;8.32;45.65;102506.44;5036062;28;20060;-64
2022/03/23 02:42:37;;;;;;;36.05;16.98;;;;;;;8.29;45.64;102506.63;5036174;28;20049;-64
2022/03/23 02:45:06;;;;;;;38.72;17.15;;;;;;;8.34;45.72;102498.44;5053852;28;20045;-64
2022/03/23 02:47:32;;;;;;;36.40;16.38;;;;;;;8.30;45.84;102503.06;5054071;28;20053;-64
2022/03/23 02:49:59;;;;;;;42.03;18.23;;;;;;;8.17;46.14;102499.50;5053941;28;20041;-64
2022/03/23 02:52:28;;;;;;;37.25;17.17;;;;;;;8.11;45.34;102503.34;5019877;28;20061;-64
2022/03/23 03:03:27;;;;;;;35.40;16.80;;;;;;;7.92;46.90;102501.00;5088866;27;20373;-64
2022/03/23 03:05:54;;;;;;;33.88;18.27;;;;;;;7.86;47.73;102502.22;5089355;28;20054;-64
2022/03/23 03:08:52;;;;;;;41.60;18.08;;;;;;;7.85;48.60;102511.06;5056168;28;20105;-63
2022/03/23 03:11:07;;;;;;;46.15;18.05;;;;;;;7.84;47.90;102508.50;5090057;28;20040;-63
2022/03/23 03:13:34;;;;;;;46.40;19.70;;;;;;;7.82;48.33;102508.63;5090372;28;20041;-64
2022/03/23 03:16:02;;;;;;;37.33;18.83;;;;;;;7.76;49.00;102511.63;5089129;28;20063;-63
2022/03/23 03:18:31;;;;;;;40.17;18.75;;;;;;;7.76;47.91;102513.44;5055942;28;20055;-64
2022/03/23 03:21:00;;;;;;;37.30;19.05;;;;;;;7.66;48.70;102510.50;5088960;28;20051;-63
2022/03/23 03:23:27;;;;;;;44.42;19.90;;;;;;;7.65;48.56;102517.56;5088874;28;20097;-64
2022/03/23 03:25:54;;;;;;;41.78;19.23;;;;;;;7.59;49.18;102514.44;5088909;28;20044;-63
2022/03/23 03:28:20;;;;;;;40.63;18.60;;;;;;;7.57;49.55;102522.47;5090108;28;20496;-63
2022/03/23 03:30:47;;;;;;;40.58;19.23;;;;;;;7.52;48.86;102521.88;5088894;28;20036;-64
2022/03/23 03:37:41;;;;;;;39.58;17.88;;;;;;;7.43;50.04;102514.50;5080340;28;20040;-63
2022/03/23 03:40:09;;;;;;;38.80;18.05;;;;;;;7.42;49.62;102516.28;5090812;28;20048;-63
2022/03/23 03:42:36;;;;;;;42.90;18.25;;;;;;;7.41;49.31;102516.38;5089793;28;20036;-64
2022/03/23 03:45:05;;;;;;;41.00;17.85;;;;;;;7.36;49.99;102521.91;5068464;28;20083;-65
2022/03/23 03:47:32;;;;;;;37.08;18.23;;;;;;;7.34;50.79;102531.72;5085054;28;20090;-63
2022/03/23 03:49:59;;;;;;;43.00;18.77;;;;;;;7.32;50.11;102535.41;5069144;28;20044;-64
2022/03/23 03:52:26;;;;;;;47.72;19.05;;;;;;;7.32;50.95;102527.47;5069270;28;20047;-63
2022/03/23 03:54:53;;;;;;;48.78;19.05;;;;;;;7.25;50.66;102526.97;5068360;28;20049;-64
2022/03/23 03:57:20;;;;;;;41.78;18.85;;;;;;;7.27;50.46;102531.22;5067812;28;20037;-63
2022/03/23 03:59:46;;;;;;;37.35;18.42;;;;;;;7.23;50.63;102540.25;5069220;28;20128;-63
2022/03/23 04:02:14;;;;;;;36.88;18.77;;;;;;;7.18;51.02;102531.75;5067539;28;20090;-63
2022/03/23 04:04:40;;;;;;;37.83;17.55;;;;;;;7.15;50.87;102531.94;5069224;28;20123;-63
2022/03/23 04:07:07;;;;;;;38.33;18.60;;;;;;;7.14;50.82;102534.66;5088117;28;20051;-63
2022/03/23 04:09:34;;;;;;;39.95;19.10;;;;;;;7.08;50.91;102531.44;5089330;28;20567;-63
2022/03/23 04:12:01;;;;;;;39.97;18.52;;;;;;;7.07;51.41;102534.16;5088921;28;20060;-63
2022/03/23 04:14:27;;;;;;;39.75;18.27;;;;;;;7.05;50.57;102528.13;5077722;28;20444;-64
2022/03/23 04:16:55;;;;;;;44.28;19.48;;;;;;;7.02;50.95;102531.78;5075863;28;20068;-64
2022/03/23 04:19:21;;;;;;;49.75;19.50;;;;;;;7.05;51.15;102536.03;5075122;28;20072;-64
2022/03/23 04:21:48;;;;;;;38.63;18.95;;;;;;;6.90;51.13;102543.88;5062363;28;20048;-63
2022/03/23 04:24:15;;;;;;;43.05;18.00;;;;;;;7.02;51.64;102538.84;5055659;28;20044;-64
2022/03/23 04:26:44;;;;;;;44.92;18.77;;;;;;;7.07;51.31;102544.72;5055503;28;20041;-63
2022/03/23 04:29:10;;;;;;;38.78;18.45;;;;;;;7.08;51.19;102547.28;5055381;28;20045;-63
2022/03/23 04:31:38;;;;;;;45.40;19.10;;;;;;;7.14;51.23;102551.34;5053473;28;20085;-64
2022/03/23 04:34:05;;;;;;;40.95;19.48;;;;;;;6.95;51.11;102543.63;5055249;28;20045;-64
2022/03/23 04:36:32;;;;;;;43.70;18.92;;;;;;;6.90;51.54;102550.94;5072665;28;20048;-63
2022/03/23 04:39:00;;;;;;;45.58;19.58;;;;;;;6.93;51.52;102550.78;5074213;28;20087;-63
2022/03/23 04:41:27;;;;;;;42.00;19.38;;;;;;;6.82;51.46;102553.16;5075590;28;20132;-63
2022/03/23 04:43:53;;;;;;;41.28;18.98;;;;;;;6.82;51.62;102550.50;5073967;28;20048;-64
2022/03/23 04:46:20;;;;;;;39.92;19.33;;;;;;;6.78;51.61;102556.91;5075416;28;20297;-64
2022/03/23 04:48:47;;;;;;;42.53;19.58;;;;;;;6.87;52.35;102553.75;5040739;28;20143;-63
2022/03/23 04:51:14;;;;;;;43.47;18.48;;;;;;;6.78;51.42;102555.09;5074909;28;20090;-64
2022/03/23 04:53:40;;;;;;;43.55;19.60;;;;;;;6.68;51.84;102559.22;5075138;28;20052;-64
2022/03/23 04:56:07;;;;;;;48.65;19.33;;;;;;;6.73;52.03;102560.66;5073816;28;20101;-64
2022/03/23 04:58:34;;;;;;;46.58;19.90;;;;;;;6.67;53.32;102560.97;5074069;28;20048;-63
2022/03/23 05:01:02;;;;;;;42.97;18.90;;;;;;;6.67;52.99;102563.59;5073268;28;20036;-64
2022/03/23 05:03:29;;;;;;;50.70;19.10;;;;;;;6.58;53.77;102564.13;5072762;28;20119;-64
2022/03/23 05:05:56;;;;;;;43.38;19.60;;;;;;;6.66;53.15;102572.47;5056708;28;20041;-63
2022/03/23 05:08:23;;;;;;;39.25;20.02;;;;;;;6.59;53.17;102575.53;5074766;28;20047;-63
2022/03/23 05:10:50;;;;;;;37.90;19.15;;;;;;;6.53;53.25;102569.66;5074559;28;20041;-63
2022/03/23 05:13:17;;;;;;;49.03;20.08;;;;;;;6.58;53.78;102568.53;5073437;28;20036;-63
2022/03/23 05:15:44;;;;;;;42.70;19.67;;;;;;;6.44;54.63;102572.78;5073347;28;20068;-63
2022/03/23 05:18:11;;;;;;;48.45;19.80;;;;;;;6.45;53.86;102566.56;5073393;28;20048;-63
2022/03/23 05:20:38;;;;;;;41.65;18.95;;;;;;;6.41;54.11;102570.31;5073995;28;20049;-63
2022/03/23 05:23:05;;;;;;;43.97;20.35;;;;;;;6.42;54.23;102568.50;5073983;28;20045;-63
2022/03/23 05:25:32;;;;;;;40.47;19.25;;;;;;;6.37;54.87;102570.53;5071981;28;20068;-63
2022/03/23 05:27:58;;;;;;;41.50;20.63;;;;;;;6.30;54.83;102568.25;5074214;28;20040;-63
2022/03/23 05:30:25;;;;;;;40.90;19.67;;;;;;;6.22;54.45;102567.81;5038053;28;20056;-63
2022/03/23 05:32:52;;;;;;;41.40;18.88;;;;;;;6.26;54.91;102568.50;5073911;28;20044;-63
2022/03/23 05:35:18;;;;;;;46.03;19.45;;;;;;;6.22;55.41;102567.81;5072501;28;20410;-63
2022/03/23 05:37:45;;;;;;;45.80;20.45;;;;;;;6.19;55.10;102572.41;5056040;28;20075;-63
2022/03/23 05:40:13;;;;;;;42.83;19.27;;;;;;;6.22;55.30;102569.56;5072954;28;20072;-63
2022/03/23 05:42:41;;;;;;;47.28;20.17;;;;;;;6.31;55.22;102574.34;5072521;28;20055;-63
2022/03/23 05:45:08;;;;;;;48.55;19.98;;;;;;;6.28;56.33;102567.47;5073962;28;20036;-63
2022/03/23 05:47:37;;;;;;;42.70;20.25;;;;;;;6.33;56.12;102577.75;5072488;28;20064;-64
2022/03/23 05:50:05;;;;;;;50.33;20.35;;;;;;;6.36;55.32;102576.75;5073709;28;20047;-63
2022/03/23 05:52:32;;;;;;;49.97;20.48;;;;;;;6.34;56.50;102571.56;5076779;28;20504;-63
2022/03/23 05:54:58;;;;;;;45.58;20.13;;;;;;;6.26;55.91;102573.78;5078921;28;20041;-62
2022/03/23 05:57:25;;;;;;;39.60;19.75;;;;;;;6.26;55.68;102576.41;5057767;28;20105;-64
2022/03/23 05:59:52;;;;;;;41.45;20.30;;;;;;;6.14;55.58;102577.88;5074207;28;20049;-63
2022/03/23 06:02:19;;;;;;;43.45;20.08;;;;;;;6.17;55.62;102574.22;5089096;28;20051;-63
2022/03/23 06:04:46;;;;;;;38.05;18.83;;;;;;;6.28;55.58;102578.03;5063346;28;20132;-63
2022/03/23 06:07:13;;;;;;;42.03;19.08;;;;;;;6.20;55.70;102577.56;5068707;28;20057;-63
2022/03/23 06:09:39;;;;;;;41.35;19.00;;;;;;;6.17;55.33;102585.66;5062044;28;20037;-63
2022/03/23 06:12:07;;;;;;;46.17;19.85;;;;;;;6.22;55.58;102578.34;5072318;28;20036;-64
2022/03/23 06:14:34;;;;;;;40.72;19.30;;;;;;;6.28;55.33;102580.66;5073099;28;20097;-63
2022/03/23 06:17:01;;;;;;;45.30;20.33;;;;;;;6.33;54.74;102583.91;5072330;28;20052;-63
2022/03/23 06:19:27;;;;;;;41.75;19.27;;;;;;;6.36;55.00;102582.88;5073176;28;20057;-63
2022/03/23 06:21:54;;;;;;;47.70;18.85;;;;;;;6.30;55.14;102584.06;5072045;28;20044;-63
2022/03/23 06:24:21;;;;;;;41.55;18.80;;;;;;;6.39;55.05;102579.25;5071831;28;20050;-63
2022/03/23 06:26:47;;;;;;;41.55;19.15;;;;;;;6.43;54.86;102588.69;5072211;28;20045;-63
2022/03/23 06:29:14;;;;;;;42.45;19.45;;;;;;;6.46;55.08;102589.38;5071745;28;20042;-63
2022/03/23 06:31:41;;;;;;;40.70;19.17;;;;;;;6.46;54.91;102591.16;5071955;28;20514;-63
2022/03/23 06:34:08;;;;;;;40.42;19.58;;;;;;;6.56;54.29;102588.88;5036786;28;20040;-63
2022/03/23 06:36:35;;;;;;;47.55;19.55;;;;;;;6.65;54.30;102591.84;5072485;28;20094;-63
2022/03/23 06:39:03;;;;;;;43.45;19.17;;;;;;;6.72;52.71;102593.22;5071566;28;20091;-63
2022/03/23 06:41:31;;;;;;;41.28;18.92;;;;;;;6.85;52.70;102600.47;5072742;28;20049;-64
2022/03/23 06:43:58;;;;;;;44.22;19.27;;;;;;;6.98;52.93;102600.66;5072565;28;20118;-64
2022/03/23 06:46:25;;;;;;;39.97;20.08;;;;;;;7.03;51.95;102606.53;5072918;28;20052;-63
2022/03/23 06:48:52;;;;;;;35.78;19.73;;;;;;;7.11;52.06;102604.28;5071013;28;20051;-63
2022/03/23 06:51:19;;;;;;;41.10;20.23;;;;;;;7.05;52.60;102604.66;5071149;28;20485;-63
2022/03/23 06:53:46;;;;;;;39.58;19.65;;;;;;;7.09;51.80;102604.41;5054879;28;20075;-63
2022/03/23 06:56:12;;;;;;;46.90;21.52;;;;;;;7.19;52.24;102601.25;5072247;28;20051;-63
2022/03/23 06:58:39;;;;;;;46.30;21.50;;;;;;;7.20;51.64;102600.28;5071407;28;20115;-63
2022/03/23 07:01:06;;;;;;;44.42;20.50;;;;;;;7.25;51.09;102600.91;5072105;28;20055;-64
2022/03/23 07:03:32;;;;;;;38.80;19.30;;;;;;;7.35;51.43;102602.09;5069039;28;20090;-63
2022/03/23 07:05:59;;;;;;;40.47;19.45;;;;;;;7.43;50.85;102606.91;5071840;28;21017;-63
2022/03/23 07:11:12;;;;;;;48.33;19.92;;;;;;;7.53;50.18;102621.31;5072230;28;20646;-63
2022/03/23 07:13:39;;;;;;;45.63;19.88;;;;;;;7.62;50.67;102614.63;5071291;28;20064;-63
2022/03/23 07:16:06;;;;;;;43.10;19.08;;;;;;;7.67;49.54;102616.03;5071164;28;20114;-63
2022/03/23 07:18:33;;;;;;;43.13;20.45;;;;;;;7.78;50.20;102619.88;5072869;28;20048;-63
2022/03/23 07:21:01;;;;;;;44.38;19.73;;;;;;;7.87;49.62;102614.03;5070992;28;20513;-63
2022/03/23 07:23:27;;;;;;;44.80;19.98;;;;;;;7.91;48.98;102625.28;5072330;28;20063;-63
2022/03/23 07:25:54;;;;;;;42.95;19.90;;;;;;;7.94;49.23;102619.81;5072435;28;20114;-63
2022/03/23 07:28:20;;;;;;;41.42;19.67;;;;;;;8.00;47.90;102622.94;5071141;28;20090;-63
2022/03/23 07:30:47;;;;;;;42.35;19.77;;;;;;;7.97;47.90;102630.22;5069328;28;20404;-63
2022/03/23 07:33:14;;;;;;;44.75;19.45;;;;;;;8.14;47.72;102627.41;5038086;28;20058;-63
2022/03/23 07:35:40;;;;;;;49.47;20.85;;;;;;;8.29;46.89;102628.25;5070747;28;20079;-63
2022/03/23 07:38:07;;;;;;;44.75;20.05;;;;;;;8.23;47.74;102629.50;5071320;28;20079;-63
2022/03/23 07:40:36;;;;;;;50.60;20.27;;;;;;;8.36;47.73;102624.31;5071301;28;20037;-63
2022/03/23 07:43:04;;;;;;;48.58;21.70;;;;;;;8.42;47.16;102626.63;5070937;28;20044;-64
2022/03/23 07:45:31;;;;;;;43.90;20.42;;;;;;;8.41;46.95;102621.41;5071389;28;20501;-63
2022/03/23 07:47:58;;;;;;;45.95;21.20;;;;;;;8.40;47.27;102631.13;5071249;28;20048;-63
2022/03/23 07:50:25;;;;;;;44.13;20.92;;;;;;;8.62;47.42;102628.03;5074577;28;20036;-63
2022/03/23 07:52:52;;;;;;;43.00;21.58;;;;;;;8.70;46.00;102629.38;5075863;28;20400;-63
2022/03/23 07:55:19;;;;;;;46.45;22.65;;;;;;;8.89;46.31;102629.03;5074817;28;20045;-63
2022/03/23 07:57:46;;;;;;;46.70;21.10;;;;;;;8.89;45.21;102631.69;5056877;28;20053;-64
2022/03/23 08:00:14;;;;;;;49.22;22.58;;;;;;;9.04;45.88;102636.03;5075666;28;20162;-64
2022/03/23 08:02:41;;;;;;;52.25;22.98;;;;;;;9.22;46.18;102639.28;5074383;28;20053;-62
2022/03/23 08:05:09;;;;;;;45.67;21.48;;;;;;;9.33;45.44;102655.34;5073622;28;20049;-62
2022/03/23 08:07:36;;;;;;;40.60;20.92;;;;;;;9.30;45.54;102652.88;5045350;28;20041;-60
2022/03/23 08:10:04;;;;;;;46.47;22.13;;;;;;;9.41;45.43;102654.84;5065936;28;20047;-62
2022/03/23 08:12:31;;;;;;;61.60;23.90;;;;;;;9.45;45.18;102658.13;5058350;28;20056;-60
2022/03/23 08:14:58;;;;;;;46.72;21.83;;;;;;;9.57;44.29;102655.53;5075712;28;20123;-60
2022/03/23 08:17:24;;;;;;;45.85;21.40;;;;;;;9.72;45.05;102656.31;5068694;28;20185;-60
2022/03/23 08:22:38;;;;;;;59.20;23.65;;;;;;;9.87;44.83;102657.09;5055970;28;20044;-60
2022/03/23 08:25:05;;;;;;;52.13;24.23;;;;;;;9.98;44.53;102661.69;5072210;28;20110;-61
2022/03/23 08:27:32;;;;;;;56.92;22.92;;;;;;;10.15;44.04;102656.09;5074803;28;20041;-61
2022/03/23 08:29:59;;;;;;;58.50;24.50;;;;;;;10.35;44.40;102652.09;5055148;28;20110;-61
2022/03/23 08:32:26;;;;;;;49.33;23.67;;;;;;;10.31;44.21;102652.41;5079286;28;20126;-61
2022/03/23 08:34:53;;;;;;;45.38;23.70;;;;;;;10.24;44.66;102653.75;5072317;28;20077;-61
2022/03/23 08:37:20;;;;;;;55.47;27.35;;;;;;;10.71;43.79;102653.16;5075237;28;20055;-60
2022/03/23 08:39:47;;;;;;;51.78;24.63;;;;;;;10.54;44.82;102651.66;5075121;28;20098;-61
2022/03/23 08:42:14;;;;;;;56.38;25.60;;;;;;;10.53;44.65;102649.97;5071030;28;20036;-60
2022/03/23 08:44:42;;;;;;;54.75;28.10;;;;;;;10.78;44.01;102652.72;5063978;28;20044;-60
2022/03/23 08:47:09;;;;;;;56.97;26.30;;;;;;;10.95;44.21;102649.69;5042301;28;20059;-62
2022/03/23 08:49:36;;;;;;;55.47;25.73;;;;;;;11.10;43.36;102651.25;5054921;28;20048;-62
2022/03/23 08:52:03;;;;;;;50.20;24.92;;;;;;;11.16;43.20;102652.59;5054587;28;20041;-62
2022/03/23 08:54:30;;;;;;;52.95;26.33;;;;;;;11.21;43.69;102658.44;5072902;28;20206;-62
2022/03/23 08:56:57;;;;;;;55.03;25.55;;;;;;;11.35;43.41;102657.44;5074436;28;20037;-62
2022/03/23 08:59:24;;;;;;;58.85;25.90;;;;;;;11.45;42.99;102652.28;5074516;28;20089;-62
2022/03/23 09:01:51;;;;;;;55.08;25.95;;;;;;;11.65;43.20;102656.13;5072280;28;20581;-62
2022/03/23 09:04:18;;;;;;;50.03;25.05;;;;;;;11.84;42.21;102652.94;5052794;28;20494;-63
2022/03/23 09:06:45;;;;;;;52.97;27.05;;;;;;;11.64;41.94;102659.75;5066523;28;20041;-62
2022/03/23 09:09:11;;;;;;;53.83;26.60;;;;;;;11.92;42.34;102658.56;5073851;28;20049;-63
2022/03/23 09:11:38;;;;;;;48.50;25.80;;;;;;;12.11;42.09;102658.00;5073863;28;20048;-63
2022/03/23 09:14:05;;;;;;;57.88;24.88;;;;;;;12.42;41.47;102652.97;5072983;28;20040;-63
2022/03/23 09:16:32;;;;;;;54.00;25.10;;;;;;;12.86;40.35;102651.25;5067939;28;20044;-63
2022/03/23 09:19:02;;;;;;;55.28;26.50;;;;;;;13.24;38.93;102650.88;5053216;28;20409;-62
2022/03/23 09:21:28;;;;;;;56.88;25.85;;;;;;;13.69;38.27;102649.88;5056668;28;20052;-62
2022/03/23 09:23:55;;;;;;;57.75;25.90;;;;;;;14.55;37.21;102655.91;5052406;28;20047;-63
2022/03/23 09:26:22;;;;;;;55.50;26.17;;;;;;;15.43;35.54;102658.84;5053902;28;20493;-61
2022/03/23 09:28:51;;;;;;;53.53;25.00;;;;;;;16.47;32.87;102655.50;5058154;28;20045;-60
2022/03/23 09:31:18;;;;;;;56.40;26.17;;;;;;;17.53;30.92;102653.22;5070189;28;20044;-61
2022/03/23 09:33:48;;;;;;;47.65;26.40;;;;;;;18.21;29.39;102654.47;5062027;28;20044;-61
2022/03/23 09:39:04;;;;;;;50.25;27.17;;;;;;;19.97;27.00;102650.09;5058847;28;20060;-61
2022/03/23 09:41:32;;;;;;;47.13;26.02;;;;;;;20.32;26.47;102654.25;5055001;28;20052;-61
2022/03/23 09:43:59;;;;;;;55.40;26.65;;;;;;;21.05;25.35;102643.38;5071823;28;20382;-61
2022/03/23 09:46:27;;;;;;;47.25;26.60;;;;;;;20.44;25.70;102643.91;5070372;28;20041;-61
2022/03/23 09:48:53;;;;;;;47.15;26.10;;;;;;;20.35;26.03;102646.81;5072586;28;20071;-61
2022/03/23 09:51:22;;;;;;;49.05;26.20;;;;;;;21.46;24.56;102641.22;5057433;28;20086;-61
2022/03/23 09:53:48;;;;;;;69.45;27.42;;;;;;;22.51;23.80;102638.75;5053153;28;20037;-61
2022/03/23 09:56:15;;;;;;;51.38;26.50;;;;;;;23.44;22.66;102641.69;5057961;28;20048;-61
2022/03/23 09:58:42;;;;;;;47.88;26.60;;;;;;;23.62;21.63;102639.34;5052088;28;20049;-62
2022/03/23 10:04:27;;;;;;;50.33;27.60;;;;;;;23.84;21.26;102645.59;5121286;27;20411;-62
2022/03/23 10:07:19;;;;;;;47.40;28.05;;;;;;;23.82;21.82;102638.72;5127788;28;20039;-63
2022/03/23 10:10:26;;;;;;;49.22;27.80;;;;;;;25.04;19.76;102631.84;5122423;28;20046;-63
2022/03/23 10:13:33;;;;;;;53.75;28.98;;;;;;;25.43;19.52;102639.25;5120207;28;20754;-62
2022/03/23 10:16:39;;;;;;;49.15;27.75;;;;;;;24.81;19.98;102648.47;5125167;28;20415;-62
2022/03/23 10:19:06;;;;;;;55.05;27.23;;;;;;;25.14;19.77;102645.00;5109714;28;20093;-62
2022/03/23 10:21:35;;;;;;;47.70;27.83;;;;;;;26.61;18.24;102646.66;5092217;28;20047;-62
2022/03/23 10:26:42;;;;;;;45.10;27.02;;;;;;;27.19;16.97;102642.16;5151780;27;20337;-61
2022/03/23 10:29:25;;;;;;;49.70;28.02;;;;;;;26.61;17.98;102640.38;5151564;27;20039;-62
2022/03/23 10:32:10;;;;;;;47.03;28.10;;;;;;;28.13;15.79;102640.34;5131356;27;20062;-61
2022/03/23 10:34:53;;;;;;;49.55;27.90;;;;;;;26.55;17.20;102633.88;5106747;28;20507;-62
2022/03/23 10:37:27;;;;;;;53.97;28.27;;;;;;;25.80;18.02;102628.81;5100367;28;20031;-61
2022/03/23 10:39:56;;;;;;;49.72;28.33;;;;;;;25.71;18.35;102638.22;5131145;28;20448;-62
2022/03/23 10:42:26;;;;;;;48.22;27.08;;;;;;;25.73;18.54;102630.69;5130838;28;20487;-62
2022/03/23 10:45:16;;;;;;;48.45;28.23;;;;;;;24.36;20.09;102629.03;5126597;28;20040;-62
2022/03/23 10:47:45;;;;;;;52.60;27.20;;;;;;;24.33;20.03;102633.81;5121266;28;20051;-62
2022/03/23 10:50:18;;;;;;;49.25;28.60;;;;;;;24.63;20.02;102628.19;5071831;28;20772;-62
2022/03/23 10:52:51;;;;;;;53.17;27.45;;;;;;;24.62;19.07;102631.91;5120751;28;20085;-62
2022/03/23 10:55:18;;;;;;;49.78;27.55;;;;;;;23.84;20.03;102628.50;5114814;27;20034;-63
2022/03/23 11:02:21;;;;;;;45.25;25.75;;;;;;;23.36;20.18;102621.00;5108948;28;20484;-63
2022/03/23 11:04:52;;;;;;;45.63;27.05;;;;;;;23.66;19.88;102616.25;5111905;28;20039;-61
2022/03/23 11:07:25;;;;;;;55.60;29.63;;;;;;;23.74;19.62;102618.81;5129886;28;20403;-62
2022/03/23 11:15:58;;;;;;;47.05;28.63;;;;;;;24.60;18.93;102614.19;5126868;28;20036;-61
2022/03/23 11:18:18;;;;;;;53.90;27.60;;;;;;;25.14;18.05;102597.00;5117503;28;20485;-61
2022/03/23 11:20:50;;;;;;;48.88;28.50;;;;;;;24.22;18.99;102604.56;5111551;28;20047;-61
2022/03/23 11:23:23;;;;;;;44.33;27.15;;;;;;;25.12;18.19;102595.53;5101480;28;20051;-62
2022/03/23 11:25:52;;;;;;;53.08;26.95;;;;;;;25.68;16.58;102600.59;5120454;28;20040;-61
2022/03/23 11:28:21;;;;;;;61.70;32.95;;;;;;;25.43;16.34;102597.66;5123738;28;20036;-62
2022/03/23 11:30:50;;;;;;;42.40;25.02;;;;;;;24.36;17.64;102601.91;5127457;28;20040;-62
2022/03/23 11:33:21;;;;;;;42.97;26.50;;;;;;;23.30;18.52;102592.84;5090166;28;20044;-62
2022/03/23 11:35:50;;;;;;;43.92;26.75;;;;;;;23.11;18.58;102586.19;5113882;28;20036;-63
2022/03/23 11:38:20;;;;;;;47.10;27.02;;;;;;;23.18;19.24;102586.25;5090162;28;20066;-63
2022/03/23 11:40:50;;;;;;;48.63;26.93;;;;;;;23.25;19.82;102587.16;5110520;28;20037;-63
2022/03/23 11:43:19;;;;;;;45.00;26.65;;;;;;;23.46;20.28;102588.16;5093122;28;20096;-62
2022/03/23 11:46:02;;;;;;;51.92;28.65;;;;;;;24.07;19.22;102584.91;5090812;28;20075;-64
2022/03/23 11:48:58;;;;;;;50.47;28.52;;;;;;;23.33;18.74;102583.47;5082556;28;20040;-63
2022/03/23 11:52:02;;;;;;;49.30;29.83;;;;;;;23.60;19.86;102579.13;5105221;28;20071;-63
2022/03/23 11:58:02;;;;;;;46.28;26.17;;;;;;;27.59;13.86;102576.47;5114056;28;20126;-63
2022/03/23 12:00:39;;;;;;;55.67;27.25;;;;;;;28.27;14.06;102582.91;5109587;28;20040;-63